THY1990 LTAN-LTFJ
Flight info
| Callsign | THY1990 |
|---|---|
| Flight time | 1h 5m |
| Altitude | 32000 |
| Route | LTAN SID HISAR UB545 OSVEL UL620 KFK UB545 OSGED UL620 APSER UL610 ETAMP STAR LTFJ |
| Aircraft | B738/M-VGDW/C |
Departure
| Time | 2026-05-06 12:27 |
|---|---|
| Airport | Konya Airport (LTAN) |
Arrival
| Time | 2026-05-06 13:33 |
|---|---|
| Airport | Istanbul Sabiha Gökçen International Airport (LTFJ) |
| Time | Latitude | Longitude | Altitude | Speed | Heading |
|---|---|---|---|---|---|
| 2026-05-06 12:18 | 37.97084 | 32.55539 | 3390 ft | 0 kts | 313° |
| 2026-05-06 12:21 | 37.97076 | 32.55550 | 3390 ft | 2 kts | 313° |
| 2026-05-06 12:21 | 37.97063 | 32.55568 | 3390 ft | 3 kts | 313° |
| 2026-05-06 12:22 | 37.97061 | 32.55570 | 3390 ft | 2 kts | 313° |
| 2026-05-06 12:22 | 37.97079 | 32.55544 | 3390 ft | 5 kts | 298° |
| 2026-05-06 12:22 | 37.97076 | 32.55498 | 3390 ft | 6 kts | 252° |
| 2026-05-06 12:22 | 37.97070 | 32.55472 | 3390 ft | 7 kts | 257° |
| 2026-05-06 12:23 | 37.97048 | 32.55431 | 3390 ft | 4 kts | 193° |
| 2026-05-06 12:23 | 37.97029 | 32.55437 | 3390 ft | 2 kts | 159° |
| 2026-05-06 12:23 | 37.97004 | 32.55446 | 3390 ft | 4 kts | 163° |
| 2026-05-06 12:23 | 37.96966 | 32.55461 | 3390 ft | 7 kts | 163° |
| 2026-05-06 12:24 | 37.96905 | 32.55484 | 3390 ft | 11 kts | 163° |
| 2026-05-06 12:24 | 37.96819 | 32.55509 | 3390 ft | 13 kts | 189° |
| 2026-05-06 12:24 | 37.96746 | 32.55491 | 3390 ft | 6 kts | 191° |
| 2026-05-06 12:24 | 37.96745 | 32.55491 | 3390 ft | 0 kts | 191° |
| 2026-05-06 12:25 | 37.96741 | 32.55490 | 3390 ft | 0 kts | 191° |
| 2026-05-06 12:25 | 37.96736 | 32.55490 | 3390 ft | 0 kts | 178° |
| 2026-05-06 12:26 | 37.96732 | 32.55490 | 3390 ft | 2 kts | 185° |
| 2026-05-06 12:26 | 37.96708 | 32.55484 | 3390 ft | 5 kts | 158° |
| 2026-05-06 12:26 | 37.96709 | 32.55524 | 3390 ft | 6 kts | 25° |
| 2026-05-06 12:26 | 37.96798 | 32.55532 | 3390 ft | 39 kts | 15° |
| 2026-05-06 12:27 | 37.97335 | 32.55731 | 3390 ft | 121 kts | 16° |
| 2026-05-06 12:27 | 37.98366 | 32.56118 | 3459 ft | 181 kts | 16° |
| 2026-05-06 12:27 | 37.99545 | 32.56551 | 4099 ft | 175 kts | 13° |
| 2026-05-06 12:27 | 38.00716 | 32.56431 | 4618 ft | 170 kts | 331° |
| 2026-05-06 12:28 | 38.01527 | 32.55386 | 5274 ft | 166 kts | 303° |
| 2026-05-06 12:28 | 38.02068 | 32.54105 | 5916 ft | 166 kts | 295° |
| 2026-05-06 12:28 | 38.02508 | 32.52697 | 6573 ft | 176 kts | 287° |
| 2026-05-06 12:28 | 38.02857 | 32.51158 | 7214 ft | 187 kts | 282° |
| 2026-05-06 12:29 | 38.03122 | 32.49494 | 7821 ft | 199 kts | 278° |
| 2026-05-06 12:29 | 38.03324 | 32.47694 | 8468 ft | 212 kts | 276° |
| 2026-05-06 12:29 | 38.03480 | 32.45774 | 9113 ft | 225 kts | 275° |
| 2026-05-06 12:29 | 38.03614 | 32.43746 | 9752 ft | 235 kts | 275° |
| 2026-05-06 12:30 | 38.03767 | 32.41682 | 10376 ft | 240 kts | 274° |
| 2026-05-06 12:30 | 38.03880 | 32.39534 | 10955 ft | 252 kts | 272° |
| 2026-05-06 12:30 | 38.03968 | 32.37217 | 11426 ft | 272 kts | 272° |
| 2026-05-06 12:30 | 38.04050 | 32.34738 | 11869 ft | 292 kts | 272° |
| 2026-05-06 12:31 | 38.04133 | 32.32064 | 12274 ft | 313 kts | 272° |
| 2026-05-06 12:31 | 38.04214 | 32.29253 | 12889 ft | 324 kts | 272° |
| 2026-05-06 12:31 | 38.04295 | 32.26375 | 13698 ft | 328 kts | 272° |
| 2026-05-06 12:31 | 38.04376 | 32.23448 | 14520 ft | 332 kts | 272° |
| 2026-05-06 12:32 | 38.04459 | 32.20508 | 15314 ft | 336 kts | 272° |
| 2026-05-06 12:32 | 38.04552 | 32.17524 | 16091 ft | 340 kts | 272° |
| 2026-05-06 12:32 | 38.04659 | 32.14501 | 16847 ft | 344 kts | 274° |
| 2026-05-06 12:32 | 38.04906 | 32.11460 | 17582 ft | 348 kts | 277° |
| 2026-05-06 12:33 | 38.05250 | 32.08433 | 18290 ft | 352 kts | 278° |
| 2026-05-06 12:33 | 38.05639 | 32.05341 | 18990 ft | 356 kts | 278° |
| 2026-05-06 12:33 | 38.06024 | 32.02218 | 19672 ft | 360 kts | 278° |
| 2026-05-06 12:33 | 38.06405 | 31.99058 | 20330 ft | 364 kts | 278° |
| 2026-05-06 12:34 | 38.06780 | 31.95894 | 20961 ft | 367 kts | 278° |
| 2026-05-06 12:34 | 38.07177 | 31.92640 | 21586 ft | 371 kts | 278° |
| 2026-05-06 12:34 | 38.07571 | 31.89384 | 22185 ft | 375 kts | 278° |
| 2026-05-06 12:34 | 38.07960 | 31.86096 | 22768 ft | 379 kts | 278° |
| 2026-05-06 12:35 | 38.08345 | 31.82783 | 23332 ft | 382 kts | 278° |
| 2026-05-06 12:35 | 38.08729 | 31.79428 | 23880 ft | 386 kts | 277° |
| 2026-05-06 12:35 | 38.09108 | 31.76081 | 24405 ft | 389 kts | 277° |
| 2026-05-06 12:35 | 38.09492 | 31.72671 | 24920 ft | 392 kts | 277° |
| 2026-05-06 12:36 | 38.09877 | 31.69230 | 25419 ft | 395 kts | 277° |
| 2026-05-06 12:36 | 38.10267 | 31.65736 | 25907 ft | 399 kts | 277° |
| 2026-05-06 12:36 | 38.10657 | 31.62238 | 26375 ft | 402 kts | 277° |
| 2026-05-06 12:36 | 38.11087 | 31.58716 | 26826 ft | 405 kts | 282° |
| 2026-05-06 12:37 | 38.11961 | 31.55340 | 27254 ft | 410 kts | 293° |
| 2026-05-06 12:37 | 38.13382 | 31.52197 | 27678 ft | 414 kts | 303° |
| 2026-05-06 12:37 | 38.15148 | 31.49278 | 28118 ft | 417 kts | 307° |
| 2026-05-06 12:37 | 38.17025 | 31.46457 | 28668 ft | 417 kts | 309° |
| 2026-05-06 12:38 | 38.18939 | 31.43704 | 29222 ft | 416 kts | 309° |
| 2026-05-06 12:38 | 38.20854 | 31.40961 | 29751 ft | 415 kts | 309° |
| 2026-05-06 12:38 | 38.22777 | 31.38209 | 30266 ft | 414 kts | 309° |
| 2026-05-06 12:38 | 38.24689 | 31.35474 | 30767 ft | 413 kts | 309° |
| 2026-05-06 12:39 | 38.26600 | 31.32743 | 31258 ft | 412 kts | 309° |
| 2026-05-06 12:39 | 38.28515 | 31.30043 | 31738 ft | 411 kts | 310° |
| 2026-05-06 12:39 | 38.30416 | 31.27350 | 31959 ft | 414 kts | 309° |
| 2026-05-06 12:39 | 38.32334 | 31.24621 | 31989 ft | 415 kts | 309° |
| 2026-05-06 12:40 | 38.36159 | 31.19153 | 31996 ft | 410 kts | 309° |
| 2026-05-06 12:40 | 38.39943 | 31.13724 | 31997 ft | 409 kts | 309° |
| 2026-05-06 12:41 | 38.43698 | 31.08327 | 31997 ft | 409 kts | 309° |
| 2026-05-06 12:41 | 38.47478 | 31.02890 | 31997 ft | 409 kts | 309° |
| 2026-05-06 12:42 | 38.51235 | 30.97434 | 31997 ft | 409 kts | 309° |
| 2026-05-06 12:42 | 38.54987 | 30.91964 | 31997 ft | 409 kts | 309° |
| 2026-05-06 12:43 | 38.58734 | 30.86489 | 31997 ft | 409 kts | 309° |
| 2026-05-06 12:43 | 38.62497 | 30.81036 | 31997 ft | 409 kts | 309° |
| 2026-05-06 12:44 | 38.66256 | 30.75548 | 31997 ft | 409 kts | 309° |
| 2026-05-06 12:44 | 38.69989 | 30.70067 | 31997 ft | 409 kts | 309° |
| 2026-05-06 12:45 | 38.73705 | 30.64597 | 31997 ft | 409 kts | 309° |
| 2026-05-06 12:46 | 38.79148 | 30.56208 | 31996 ft | 407 kts | 301° |
| 2026-05-06 12:46 | 38.81557 | 30.49696 | 31997 ft | 404 kts | 289° |
| 2026-05-06 12:47 | 38.83299 | 30.42842 | 31997 ft | 404 kts | 286° |
| 2026-05-06 12:47 | 38.84951 | 30.35957 | 31997 ft | 404 kts | 286° |
| 2026-05-06 12:48 | 38.86583 | 30.29100 | 31997 ft | 404 kts | 286° |
| 2026-05-06 12:48 | 38.88214 | 30.22216 | 31997 ft | 404 kts | 286° |
| 2026-05-06 12:49 | 38.89940 | 30.15356 | 31985 ft | 405 kts | 294° |
| 2026-05-06 12:49 | 38.91502 | 30.12334 | 31992 ft | 409 kts | 310° |
| 2026-05-06 12:49 | 38.93666 | 30.09999 | 32000 ft | 413 kts | 324° |
| 2026-05-06 12:50 | 38.98743 | 30.06475 | 31997 ft | 414 kts | 332° |
| 2026-05-06 12:50 | 39.03970 | 30.03424 | 31997 ft | 412 kts | 333° |
| 2026-05-06 12:51 | 39.09229 | 30.00434 | 31997 ft | 412 kts | 333° |
| 2026-05-06 12:51 | 39.14379 | 29.97522 | 31991 ft | 391 kts | 333° |
| 2026-05-06 12:51 | 39.16826 | 29.96137 | 31987 ft | 377 kts | 333° |
| 2026-05-06 12:52 | 39.19185 | 29.94800 | 31984 ft | 364 kts | 333° |
| 2026-05-06 12:52 | 39.21469 | 29.93504 | 31981 ft | 352 kts | 333° |
| 2026-05-06 12:52 | 39.23655 | 29.92263 | 31978 ft | 341 kts | 332° |
| 2026-05-06 12:52 | 39.25784 | 29.91053 | 31975 ft | 329 kts | 332° |
| 2026-05-06 12:53 | 39.27852 | 29.89877 | 31978 ft | 323 kts | 332° |
| 2026-05-06 12:53 | 39.31994 | 29.87521 | 31995 ft | 328 kts | 332° |
| 2026-05-06 12:54 | 39.36205 | 29.85125 | 31997 ft | 330 kts | 332° |
| 2026-05-06 12:54 | 39.40421 | 29.82766 | 31997 ft | 330 kts | 333° |
| 2026-05-06 12:55 | 39.44620 | 29.80412 | 31997 ft | 330 kts | 333° |
| 2026-05-06 12:55 | 39.48837 | 29.78040 | 31997 ft | 330 kts | 333° |
| 2026-05-06 12:56 | 39.53050 | 29.75666 | 31997 ft | 330 kts | 333° |
| 2026-05-06 12:56 | 39.57270 | 29.73287 | 31997 ft | 330 kts | 332° |
| 2026-05-06 12:57 | 39.61481 | 29.70917 | 31997 ft | 330 kts | 333° |
| 2026-05-06 12:57 | 39.65700 | 29.68549 | 31997 ft | 330 kts | 333° |
| 2026-05-06 12:58 | 39.69915 | 29.66170 | 31997 ft | 330 kts | 333° |
| 2026-05-06 12:58 | 39.74105 | 29.63798 | 31997 ft | 330 kts | 332° |
| 2026-05-06 12:59 | 39.78303 | 29.61416 | 31997 ft | 330 kts | 332° |
| 2026-05-06 12:59 | 39.82509 | 29.59025 | 31997 ft | 330 kts | 332° |
| 2026-05-06 13:00 | 39.86692 | 29.56645 | 31997 ft | 330 kts | 332° |
| 2026-05-06 13:00 | 39.88801 | 29.55445 | 31804 ft | 332 kts | 332° |
| 2026-05-06 13:00 | 39.90964 | 29.54268 | 31298 ft | 342 kts | 336° |
| 2026-05-06 13:00 | 39.93279 | 29.53322 | 30806 ft | 354 kts | 340° |
| 2026-05-06 13:01 | 39.95670 | 29.52464 | 30309 ft | 360 kts | 341° |
| 2026-05-06 13:01 | 39.98095 | 29.51593 | 29808 ft | 362 kts | 341° |
| 2026-05-06 13:01 | 40.00532 | 29.50708 | 29307 ft | 364 kts | 341° |
| 2026-05-06 13:01 | 40.02974 | 29.49817 | 28808 ft | 366 kts | 340° |
| 2026-05-06 13:02 | 40.05439 | 29.48917 | 28306 ft | 368 kts | 342° |
| 2026-05-06 13:02 | 40.07982 | 29.48422 | 27805 ft | 374 kts | 354° |
| 2026-05-06 13:02 | 40.10583 | 29.48667 | 27309 ft | 380 kts | 6° |
| 2026-05-06 13:02 | 40.13176 | 29.49423 | 26810 ft | 383 kts | 11° |
| 2026-05-06 13:03 | 40.15750 | 29.50391 | 26309 ft | 385 kts | 14° |
| 2026-05-06 13:03 | 40.18305 | 29.51457 | 25808 ft | 385 kts | 14° |
| 2026-05-06 13:03 | 40.20864 | 29.52523 | 25308 ft | 386 kts | 14° |
| 2026-05-06 13:03 | 40.23455 | 29.53367 | 24799 ft | 381 kts | 2° |
| 2026-05-06 13:04 | 40.26060 | 29.53206 | 24298 ft | 372 kts | 344° |
| 2026-05-06 13:04 | 40.28452 | 29.52045 | 23803 ft | 365 kts | 329° |
| 2026-05-06 13:04 | 40.30649 | 29.50388 | 23304 ft | 364 kts | 326° |
| 2026-05-06 13:04 | 40.32802 | 29.48651 | 22802 ft | 362 kts | 323° |
| 2026-05-06 13:05 | 40.34165 | 29.47407 | 22472 ft | 361 kts | 321° |
| 2026-05-06 13:05 | 40.36181 | 29.45450 | 21971 ft | 360 kts | 320° |
| 2026-05-06 13:05 | 40.38074 | 29.43335 | 21462 ft | 355 kts | 308° |
| 2026-05-06 13:05 | 40.39613 | 29.39640 | 20800 ft | 348 kts | 285° |
| 2026-05-06 13:06 | 40.40012 | 29.36516 | 20304 ft | 346 kts | 275° |
| 2026-05-06 13:06 | 40.40198 | 29.34399 | 19965 ft | 346 kts | 277° |
| 2026-05-06 13:06 | 40.40474 | 29.31273 | 19464 ft | 345 kts | 273° |
| 2026-05-06 13:06 | 40.40475 | 29.28132 | 18963 ft | 343 kts | 268° |
| 2026-05-06 13:07 | 40.40418 | 29.25042 | 18465 ft | 342 kts | 272° |
| 2026-05-06 13:07 | 40.40783 | 29.21963 | 17965 ft | 342 kts | 284° |
| 2026-05-06 13:07 | 40.41663 | 29.19065 | 17466 ft | 342 kts | 294° |
| 2026-05-06 13:07 | 40.42768 | 29.16285 | 16963 ft | 342 kts | 297° |
| 2026-05-06 13:08 | 40.43769 | 29.13473 | 16457 ft | 339 kts | 287° |
| 2026-05-06 13:08 | 40.44225 | 29.10488 | 15967 ft | 337 kts | 277° |
| 2026-05-06 13:08 | 40.44429 | 29.07434 | 15464 ft | 335 kts | 270° |
| 2026-05-06 13:08 | 40.44262 | 29.04382 | 14964 ft | 334 kts | 263° |
| 2026-05-06 13:09 | 40.43998 | 29.01359 | 14462 ft | 333 kts | 266° |
| 2026-05-06 13:09 | 40.43996 | 28.98333 | 13963 ft | 332 kts | 273° |
| 2026-05-06 13:09 | 40.44274 | 28.95325 | 13461 ft | 331 kts | 279° |
| 2026-05-06 13:09 | 40.44731 | 28.92359 | 12960 ft | 330 kts | 281° |
| 2026-05-06 13:10 | 40.45209 | 28.89419 | 12458 ft | 329 kts | 282° |
| 2026-05-06 13:10 | 40.45868 | 28.86555 | 11959 ft | 328 kts | 289° |
| 2026-05-06 13:10 | 40.46776 | 28.83839 | 11463 ft | 328 kts | 295° |
| 2026-05-06 13:10 | 40.47831 | 28.81221 | 11117 ft | 316 kts | 297° |
| 2026-05-06 13:11 | 40.48851 | 28.78783 | 11041 ft | 295 kts | 297° |
| 2026-05-06 13:11 | 40.49817 | 28.76548 | 10990 ft | 277 kts | 300° |
| 2026-05-06 13:11 | 40.50961 | 28.74541 | 10917 ft | 263 kts | 308° |
| 2026-05-06 13:11 | 40.52192 | 28.72817 | 10696 ft | 254 kts | 311° |
| 2026-05-06 13:12 | 40.53432 | 28.71198 | 10467 ft | 246 kts | 312° |
| 2026-05-06 13:12 | 40.54629 | 28.69644 | 10239 ft | 238 kts | 312° |
| 2026-05-06 13:12 | 40.56025 | 28.68523 | 9986 ft | 240 kts | 342° |
| 2026-05-06 13:12 | 40.57669 | 28.68694 | 9761 ft | 249 kts | 18° |
| 2026-05-06 13:13 | 40.59090 | 28.70090 | 9560 ft | 266 kts | 45° |
| 2026-05-06 13:13 | 40.60161 | 28.72127 | 9353 ft | 276 kts | 56° |
| 2026-05-06 13:13 | 40.61180 | 28.74293 | 9131 ft | 281 kts | 56° |
| 2026-05-06 13:13 | 40.62209 | 28.76508 | 8907 ft | 285 kts | 56° |
| 2026-05-06 13:14 | 40.63241 | 28.78730 | 8681 ft | 283 kts | 56° |
| 2026-05-06 13:14 | 40.64258 | 28.80924 | 8455 ft | 280 kts | 56° |
| 2026-05-06 13:14 | 40.65268 | 28.83105 | 8229 ft | 277 kts | 56° |
| 2026-05-06 13:14 | 40.66266 | 28.85261 | 8094 ft | 274 kts | 56° |
| 2026-05-06 13:15 | 40.67258 | 28.87407 | 7968 ft | 275 kts | 56° |
| 2026-05-06 13:15 | 40.68253 | 28.89560 | 7801 ft | 276 kts | 56° |
| 2026-05-06 13:15 | 40.69236 | 28.91689 | 7579 ft | 274 kts | 56° |
| 2026-05-06 13:15 | 40.70237 | 28.93860 | 7351 ft | 273 kts | 56° |
| 2026-05-06 13:16 | 40.71219 | 28.95991 | 7125 ft | 272 kts | 56° |
| 2026-05-06 13:16 | 40.72196 | 28.98113 | 6900 ft | 271 kts | 56° |
| 2026-05-06 13:16 | 40.73171 | 29.00231 | 6674 ft | 270 kts | 56° |
| 2026-05-06 13:16 | 40.74129 | 29.02314 | 6453 ft | 269 kts | 56° |
| 2026-05-06 13:17 | 40.75094 | 29.04412 | 6227 ft | 266 kts | 56° |
| 2026-05-06 13:17 | 40.76050 | 29.06493 | 6019 ft | 262 kts | 56° |
| 2026-05-06 13:17 | 40.76982 | 29.08522 | 5844 ft | 257 kts | 56° |
| 2026-05-06 13:17 | 40.77911 | 29.10518 | 5667 ft | 252 kts | 56° |
| 2026-05-06 13:18 | 40.78809 | 29.12452 | 5492 ft | 247 kts | 56° |
| 2026-05-06 13:18 | 40.79711 | 29.14399 | 5314 ft | 244 kts | 56° |
| 2026-05-06 13:18 | 40.80589 | 29.16297 | 5138 ft | 240 kts | 56° |
| 2026-05-06 13:18 | 40.81452 | 29.18167 | 4964 ft | 239 kts | 56° |
| 2026-05-06 13:19 | 40.82318 | 29.20046 | 4787 ft | 237 kts | 56° |
| 2026-05-06 13:19 | 40.83159 | 29.21875 | 4614 ft | 234 kts | 57° |
| 2026-05-06 13:19 | 40.84001 | 29.23689 | 4436 ft | 229 kts | 57° |
| 2026-05-06 13:19 | 40.84822 | 29.25459 | 4260 ft | 224 kts | 57° |
| 2026-05-06 13:20 | 40.85625 | 29.27195 | 4081 ft | 218 kts | 57° |
| 2026-05-06 13:20 | 40.86407 | 29.28892 | 3902 ft | 212 kts | 57° |
| 2026-05-06 13:20 | 40.87162 | 29.30537 | 3723 ft | 207 kts | 58° |
| 2026-05-06 13:20 | 40.87899 | 29.32145 | 3544 ft | 202 kts | 58° |
| 2026-05-06 13:21 | 40.88620 | 29.33722 | 3365 ft | 198 kts | 58° |
| 2026-05-06 13:21 | 40.89320 | 29.35255 | 3217 ft | 189 kts | 59° |
| 2026-05-06 13:21 | 40.89971 | 29.36683 | 3105 ft | 173 kts | 59° |
| 2026-05-06 13:21 | 40.90567 | 29.37993 | 2934 ft | 162 kts | 59° |
| 2026-05-06 13:22 | 40.91129 | 29.39228 | 2792 ft | 153 kts | 59° |
| 2026-05-06 13:22 | 40.91673 | 29.40424 | 2673 ft | 149 kts | 59° |
| 2026-05-06 13:22 | 40.92196 | 29.41574 | 2649 ft | 145 kts | 59° |
| 2026-05-06 13:22 | 40.92712 | 29.42711 | 2653 ft | 144 kts | 59° |
| 2026-05-06 13:23 | 40.93225 | 29.43843 | 2674 ft | 145 kts | 59° |
| 2026-05-06 13:23 | 40.93747 | 29.44993 | 2687 ft | 145 kts | 59° |
| 2026-05-06 13:23 | 40.94265 | 29.46135 | 2695 ft | 145 kts | 59° |
| 2026-05-06 13:23 | 40.94785 | 29.47282 | 2700 ft | 145 kts | 59° |
| 2026-05-06 13:24 | 40.95305 | 29.48429 | 2703 ft | 145 kts | 59° |
| 2026-05-06 13:24 | 40.95822 | 29.49571 | 2703 ft | 145 kts | 59° |
| 2026-05-06 13:24 | 40.96340 | 29.50715 | 2703 ft | 145 kts | 59° |
| 2026-05-06 13:24 | 40.96858 | 29.51860 | 2703 ft | 145 kts | 59° |
| 2026-05-06 13:25 | 40.97369 | 29.52987 | 2703 ft | 145 kts | 59° |
| 2026-05-06 13:25 | 40.97880 | 29.54117 | 2703 ft | 145 kts | 59° |
| 2026-05-06 13:25 | 40.98405 | 29.55273 | 2703 ft | 145 kts | 59° |
| 2026-05-06 13:25 | 40.98923 | 29.56417 | 2703 ft | 145 kts | 59° |
| 2026-05-06 13:26 | 40.99350 | 29.57620 | 2687 ft | 145 kts | 73° |
| 2026-05-06 13:26 | 40.99558 | 29.58928 | 2707 ft | 145 kts | 78° |
| 2026-05-06 13:26 | 41.00073 | 29.60046 | 2617 ft | 146 kts | 36° |
| 2026-05-06 13:26 | 41.01038 | 29.60094 | 2582 ft | 145 kts | 334° |
| 2026-05-06 13:27 | 41.01534 | 29.59000 | 2624 ft | 146 kts | 274° |
| 2026-05-06 13:27 | 41.01093 | 29.57846 | 2711 ft | 145 kts | 225° |
| 2026-05-06 13:27 | 41.00361 | 29.56925 | 2800 ft | 145 kts | 225° |
| 2026-05-06 13:27 | 40.99692 | 29.55923 | 2771 ft | 145 kts | 231° |
| 2026-05-06 13:28 | 40.99102 | 29.54834 | 2744 ft | 145 kts | 236° |
| 2026-05-06 13:28 | 40.98572 | 29.53708 | 2728 ft | 145 kts | 239° |
| 2026-05-06 13:28 | 40.98042 | 29.52565 | 2717 ft | 145 kts | 237° |
| 2026-05-06 13:28 | 40.97516 | 29.51428 | 2710 ft | 145 kts | 239° |
| 2026-05-06 13:29 | 40.97030 | 29.50282 | 2705 ft | 145 kts | 242° |
| 2026-05-06 13:29 | 40.96565 | 29.49098 | 2703 ft | 145 kts | 243° |
| 2026-05-06 13:29 | 40.96113 | 29.47907 | 2703 ft | 145 kts | 243° |
| 2026-05-06 13:29 | 40.95667 | 29.46712 | 2703 ft | 145 kts | 244° |
| 2026-05-06 13:30 | 40.95223 | 29.45514 | 2703 ft | 145 kts | 244° |
| 2026-05-06 13:30 | 40.94778 | 29.44307 | 2564 ft | 146 kts | 244° |
| 2026-05-06 13:30 | 40.94335 | 29.43104 | 2334 ft | 145 kts | 244° |
| 2026-05-06 13:30 | 40.93904 | 29.41933 | 2109 ft | 143 kts | 244° |
| 2026-05-06 13:31 | 40.93466 | 29.40742 | 1886 ft | 143 kts | 244° |
| 2026-05-06 13:31 | 40.93032 | 29.39563 | 1665 ft | 142 kts | 244° |
| 2026-05-06 13:31 | 40.92600 | 29.38389 | 1446 ft | 142 kts | 244° |
| 2026-05-06 13:31 | 40.92168 | 29.37216 | 1225 ft | 141 kts | 244° |
| 2026-05-06 13:32 | 40.91739 | 29.36049 | 1006 ft | 141 kts | 244° |
| 2026-05-06 13:32 | 40.91310 | 29.34883 | 788 ft | 141 kts | 244° |
| 2026-05-06 13:32 | 40.90881 | 29.33719 | 577 ft | 139 kts | 244° |
| 2026-05-06 13:32 | 40.90464 | 29.32582 | 391 ft | 137 kts | 244° |
| 2026-05-06 13:33 | 40.90058 | 29.31477 | 320 ft | 117 kts | 244° |
| 2026-05-06 13:33 | 40.89821 | 29.30857 | 320 ft | 24 kts | 243° |
| 2026-05-06 13:33 | 40.89815 | 29.30665 | 320 ft | 32 kts | 306° |
| 2026-05-06 13:33 | 40.89958 | 29.30536 | 320 ft | 25 kts | 334° |
| 2026-05-06 13:34 | 40.90046 | 29.30479 | 320 ft | 0 kts | 334° |